Search for the current weather situation

Metar

Metar
TNCC 211000Z 09012KT 9999 VCSH FEW016TCU 25/21 Q1016 NOSIG
Decoded Metar

TAF

TAF
TNCC 211000Z 09012KT 9999 VCSH FEW016TCU 25/21 Q1016 NOSIG
Decoded TAF
Top